Monee, IL

6:08 AM CDT on October 21, 2014 (GMT -0500)
Brookwood Point | Change Station
CLOSE
Current Station
Personal Weather Station
Location: Glenwood, IL
Elevation: 620 ft
Nearby Weather Stations

Elev 620 ft 41.54 °N, 87.59 °W | Updated 14 seconds ago

Overcast
Overcast
49.5 °F
Feels Like 50 °F
N
1.3
Wind Variable Wind from NNW
Gusts 1.3 mph

Today
High -- | Low -- °F
--% Chance of Precip.
Yesterday
High -- | Low -- °F
Precip. -- in
7:09 AM 6:00 PM
Waning Crescent, 6% visible
Pressure 30.05 in
Visibility 10.0 miles
Clouds Scattered Clouds 1700 ft
Overcast 2800 ft
Windchill 50 °F
Dew Point 44 °F
Humidity 82%
Rainfall 0.00 in
Snow Depth Not available.
UV 0.0 out of 12
Pollen 2.00 out of 12
Ozone Good
PM2.5 Good
Flu Activity No Activity
METAR KIGQ 211055Z AUTO 36005KT 10SM -RA SCT017 OVC028 10/07 A3005 RMK AO2 T00950071

More Conditions Fewer Conditions

Pressure 30.05 in
Visibility 10.0 miles
Clouds Scattered Clouds 1700 ft
Overcast 2800 ft
Windchill 50 °F
Dew Point 44 °F
Humidity 82%
Rainfall 0.00 in
Snow Depth Not available.
UV 0.0 out of 12
Pollen 2.00 out of 12
Ozone Good
PM2.5 Good
Flu Activity No Activity
METAR KIGQ 211055Z AUTO 36005KT 10SM -RA SCT017 OVC028 10/07 A3005 RMK AO2 T00950071

More Conditions Fewer Conditions

10-Day Weather Forecast

Almanac

Astronomy

Oct. 21, 2014 Rise Set
Actual Time 7:09 AM CDT 6:00 PM CDT
Civil Twilight 6:41 AM CDT 6:29 PM CDT
Nautical Twilight 6:09 AM CDT 7:01 PM CDT
Astronomical Twilight 5:37 AM CDT 7:33 PM CDT
Moon 4:52 AM CDT 4:56 PM CDT
Length of Visible Light 11h 47m
Length of Day
10h 51m
Tomorrow will be 2m 36s shorter.
Waning Crescent, 6% of the Moon is Illuminated
Today
Waning Crescent
Oct 23
New
Oct 30
First Quarter
Nov 6
Full
Nov 14
Last Quarter

Today's Extremes

State Highs State Lows

Community

WunderPhotos

Upload Photos

1,763,625 photos uploaded!

Nearby

Air Quality

  Air Quality AQ Index Pollutant
Yesterday Good
PM2.5
Yesterday Good
OZONE
Current Good
PM2.5
Current Good
OZONE
Tuesday Good
PM2.5
Wednesday Good
PM2.5

Snow Depth

Station Depth Elevation
No new snow has been reported.

Earthquake Activity

City Distance Mag. Time & Date
No recent earthquake activity has been reported nearby.
Minimum magnitude displayed is 2.5.

Coastal Water Temperatures

Place Temperature
No Stations Reporting

Nearby Weather Stations